Terminal Aerodrome Forecast
Issued by NWS Mt. Holly, NJ

Home | Current Version | Previous Version | Text Only | Print | Product List | Glossary On
Versions: 1 2 3 4 5 6 7 8 9 10 11 12 13 14 15 16 17 18
857
FTUS41 KPHI 300531
TAFABE
TAF
KABE 300531Z 3006/3106 13005KT P6SM OVC008
      TEMPO 3009/3012 2SM -DZ BR OVC005
     FM301500 13006KT 5SM BR VCSH OVC008
     FM302300 15006KT 4SM BR OVC006 PROB30 3023/3103 2SM -SHRA
     FM310400 16005KT 2SM BR OVC003=

USA.gov is the U.S. government's official web portal to all federal, state and local government web resources and services.